sensor_id;sensor_type;location;lat;lon;timestamp;P1;durP1;ratioP1;P2;durP2;ratioP2
9080;SDS011;13509;50.760;6.080;2023-05-28T00:01:45;10.43;;;5.93;;
9080;SDS011;13509;50.760;6.080;2023-05-28T00:04:13;12.43;;;6.03;;
9080;SDS011;13509;50.760;6.080;2023-05-28T00:06:43;12.87;;;6.23;;
9080;SDS011;13509;50.760;6.080;2023-05-28T00:09:15;14.63;;;5.87;;
9080;SDS011;13509;50.760;6.080;2023-05-28T00:11:43;11.00;;;5.47;;
9080;SDS011;13509;50.760;6.080;2023-05-28T00:14:11;10.80;;;6.00;;
9080;SDS011;13509;50.760;6.080;2023-05-28T00:16:40;18.43;;;6.30;;
9080;SDS011;13509;50.760;6.080;2023-05-28T00:19:10;10.30;;;5.83;;
9080;SDS011;13509;50.760;6.080;2023-05-28T00:21:39;14.87;;;5.53;;
9080;SDS011;13509;50.760;6.080;2023-05-28T00:24:08;15.43;;;6.13;;
9080;SDS011;13509;50.760;6.080;2023-05-28T00:26:37;12.97;;;6.60;;
9080;SDS011;13509;50.760;6.080;2023-05-28T00:29:05;9.13;;;5.40;;
9080;SDS011;13509;50.760;6.080;2023-05-28T00:31:33;16.20;;;5.90;;
9080;SDS011;13509;50.760;6.080;2023-05-28T00:34:01;10.80;;;5.03;;
9080;SDS011;13509;50.760;6.080;2023-05-28T00:36:30;9.43;;;5.10;;
9080;SDS011;13509;50.760;6.080;2023-05-28T00:38:58;16.90;;;5.53;;
9080;SDS011;13509;50.760;6.080;2023-05-28T00:41:32;11.40;;;5.23;;
9080;SDS011;13509;50.760;6.080;2023-05-28T00:44:02;11.67;;;5.27;;
9080;SDS011;13509;50.760;6.080;2023-05-28T00:46:31;11.03;;;5.20;;
9080;SDS011;13509;50.760;6.080;2023-05-28T00:49:00;10.40;;;5.30;;
9080;SDS011;13509;50.760;6.080;2023-05-28T00:51:29;9.80;;;5.13;;
9080;SDS011;13509;50.760;6.080;2023-05-28T00:53:58;11.57;;;5.10;;
9080;SDS011;13509;50.760;6.080;2023-05-28T00:56:27;9.43;;;5.37;;
9080;SDS011;13509;50.760;6.080;2023-05-28T00:58:57;10.30;;;4.80;;
9080;SDS011;13509;50.760;6.080;2023-05-28T01:01:26;8.93;;;5.13;;
9080;SDS011;13509;50.760;6.080;2023-05-28T01:03:56;8.73;;;4.87;;
9080;SDS011;13509;50.760;6.080;2023-05-28T01:06:24;11.77;;;5.00;;
9080;SDS011;13509;50.760;6.080;2023-05-28T01:08:55;10.30;;;4.67;;
9080;SDS011;13509;50.760;6.080;2023-05-28T01:11:23;11.17;;;5.63;;
9080;SDS011;13509;50.760;6.080;2023-05-28T01:13:52;10.63;;;5.13;;
9080;SDS011;13509;50.760;6.080;2023-05-28T01:16:23;13.40;;;5.63;;
9080;SDS011;13509;50.760;6.080;2023-05-28T01:18:53;12.37;;;5.57;;
9080;SDS011;13509;50.760;6.080;2023-05-28T01:21:22;10.93;;;4.53;;
9080;SDS011;13509;50.760;6.080;2023-05-28T01:23:52;10.20;;;5.20;;
9080;SDS011;13509;50.760;6.080;2023-05-28T01:26:21;11.47;;;4.57;;
9080;SDS011;13509;50.760;6.080;2023-05-28T01:28:49;9.33;;;4.57;;
9080;SDS011;13509;50.760;6.080;2023-05-28T01:31:17;7.43;;;4.90;;
9080;SDS011;13509;50.760;6.080;2023-05-28T01:33:46;12.77;;;5.10;;
9080;SDS011;13509;50.760;6.080;2023-05-28T01:36:15;11.10;;;5.50;;
9080;SDS011;13509;50.760;6.080;2023-05-28T01:38:44;10.33;;;5.13;;
9080;SDS011;13509;50.760;6.080;2023-05-28T01:41:15;11.93;;;5.60;;
9080;SDS011;13509;50.760;6.080;2023-05-28T01:43:43;10.40;;;4.93;;
9080;SDS011;13509;50.760;6.080;2023-05-28T01:46:12;12.73;;;5.27;;
9080;SDS011;13509;50.760;6.080;2023-05-28T01:48:41;13.07;;;5.10;;
9080;SDS011;13509;50.760;6.080;2023-05-28T01:51:09;8.17;;;4.90;;
9080;SDS011;13509;50.760;6.080;2023-05-28T01:53:37;13.87;;;5.47;;
9080;SDS011;13509;50.760;6.080;2023-05-28T01:56:06;11.77;;;4.97;;
9080;SDS011;13509;50.760;6.080;2023-05-28T01:58:35;7.53;;;4.90;;
9080;SDS011;13509;50.760;6.080;2023-05-28T02:01:05;11.60;;;5.07;;
9080;SDS011;13509;50.760;6.080;2023-05-28T02:03:37;10.67;;;5.67;;
9080;SDS011;13509;50.760;6.080;2023-05-28T02:06:06;10.13;;;5.10;;
9080;SDS011;13509;50.760;6.080;2023-05-28T02:08:34;10.67;;;5.17;;
9080;SDS011;13509;50.760;6.080;2023-05-28T02:11:03;9.80;;;5.20;;
9080;SDS011;13509;50.760;6.080;2023-05-28T02:13:31;11.57;;;4.80;;
9080;SDS011;13509;50.760;6.080;2023-05-28T02:16:00;8.80;;;4.97;;
9080;SDS011;13509;50.760;6.080;2023-05-28T02:18:29;8.77;;;5.00;;
9080;SDS011;13509;50.760;6.080;2023-05-28T02:20:57;8.90;;;4.73;;
9080;SDS011;13509;50.760;6.080;2023-05-28T02:23:25;10.67;;;4.83;;
9080;SDS011;13509;50.760;6.080;2023-05-28T02:25:53;7.37;;;4.70;;
9080;SDS011;13509;50.760;6.080;2023-05-28T02:28:22;9.03;;;4.97;;
9080;SDS011;13509;50.760;6.080;2023-05-28T02:30:50;12.27;;;5.27;;
9080;SDS011;13509;50.760;6.080;2023-05-28T02:33:19;11.13;;;4.70;;
9080;SDS011;13509;50.760;6.080;2023-05-28T02:35:48;14.03;;;4.97;;
9080;SDS011;13509;50.760;6.080;2023-05-28T02:38:16;14.90;;;5.07;;
9080;SDS011;13509;50.760;6.080;2023-05-28T02:40:44;12.50;;;5.50;;
9080;SDS011;13509;50.760;6.080;2023-05-28T02:43:12;7.40;;;5.10;;
9080;SDS011;13509;50.760;6.080;2023-05-28T02:45:41;14.03;;;5.00;;
9080;SDS011;13509;50.760;6.080;2023-05-28T02:48:09;11.30;;;4.90;;
9080;SDS011;13509;50.760;6.080;2023-05-28T02:50:39;9.63;;;5.50;;
9080;SDS011;13509;50.760;6.080;2023-05-28T02:53:07;7.57;;;5.23;;
9080;SDS011;13509;50.760;6.080;2023-05-28T02:55:35;10.07;;;4.90;;
9080;SDS011;13509;50.760;6.080;2023-05-28T02:58:03;11.67;;;5.13;;
9080;SDS011;13509;50.760;6.080;2023-05-28T03:00:32;14.23;;;5.40;;
9080;SDS011;13509;50.760;6.080;2023-05-28T03:03:00;12.43;;;5.10;;
9080;SDS011;13509;50.760;6.080;2023-05-28T03:05:29;9.03;;;5.43;;
9080;SDS011;13509;50.760;6.080;2023-05-28T03:08:00;11.90;;;5.13;;
9080;SDS011;13509;50.760;6.080;2023-05-28T03:10:28;9.53;;;5.00;;
9080;SDS011;13509;50.760;6.080;2023-05-28T03:12:56;10.90;;;5.43;;
9080;SDS011;13509;50.760;6.080;2023-05-28T03:15:24;10.30;;;4.90;;
9080;SDS011;13509;50.760;6.080;2023-05-28T03:17:53;8.37;;;5.27;;
9080;SDS011;13509;50.760;6.080;2023-05-28T03:20:21;11.00;;;5.27;;
9080;SDS011;13509;50.760;6.080;2023-05-28T03:22:54;10.43;;;4.73;;
9080;SDS011;13509;50.760;6.080;2023-05-28T03:25:24;13.43;;;6.20;;
9080;SDS011;13509;50.760;6.080;2023-05-28T03:27:53;12.00;;;5.17;;
9080;SDS011;13509;50.760;6.080;2023-05-28T03:30:21;10.53;;;5.73;;
9080;SDS011;13509;50.760;6.080;2023-05-28T03:32:49;10.90;;;4.57;;
9080;SDS011;13509;50.760;6.080;2023-05-28T03:35:18;9.23;;;4.80;;
9080;SDS011;13509;50.760;6.080;2023-05-28T03:37:46;11.17;;;5.10;;
9080;SDS011;13509;50.760;6.080;2023-05-28T03:40:14;13.70;;;5.00;;
9080;SDS011;13509;50.760;6.080;2023-05-28T03:42:44;13.87;;;5.23;;
9080;SDS011;13509;50.760;6.080;2023-05-28T03:45:13;12.00;;;5.33;;
9080;SDS011;13509;50.760;6.080;2023-05-28T03:47:41;9.00;;;5.37;;
9080;SDS011;13509;50.760;6.080;2023-05-28T03:50:10;8.30;;;4.93;;
9080;SDS011;13509;50.760;6.080;2023-05-28T03:52:38;8.57;;;5.77;;
9080;SDS011;13509;50.760;6.080;2023-05-28T03:55:07;11.43;;;5.17;;
9080;SDS011;13509;50.760;6.080;2023-05-28T03:57:35;9.87;;;4.87;;
9080;SDS011;13509;50.760;6.080;2023-05-28T04:00:05;8.53;;;4.80;;
9080;SDS011;13509;50.760;6.080;2023-05-28T04:02:35;10.77;;;5.50;;
9080;SDS011;13509;50.760;6.080;2023-05-28T04:05:04;9.93;;;5.07;;
9080;SDS011;13509;50.760;6.080;2023-05-28T04:07:32;7.50;;;4.23;;
9080;SDS011;13509;50.760;6.080;2023-05-28T04:10:01;9.73;;;5.00;;
9080;SDS011;13509;50.760;6.080;2023-05-28T04:12:29;6.63;;;4.30;;
9080;SDS011;13509;50.760;6.080;2023-05-28T04:14:57;11.03;;;4.70;;
9080;SDS011;13509;50.760;6.080;2023-05-28T04:17:28;8.60;;;4.30;;
9080;SDS011;13509;50.760;6.080;2023-05-28T04:19:56;8.03;;;4.47;;
9080;SDS011;13509;50.760;6.080;2023-05-28T04:22:25;8.17;;;4.47;;
9080;SDS011;13509;50.760;6.080;2023-05-28T04:24:53;10.20;;;4.20;;
9080;SDS011;13509;50.760;6.080;2023-05-28T04:27:21;7.33;;;3.70;;
9080;SDS011;13509;50.760;6.080;2023-05-28T04:29:51;5.43;;;3.60;;
9080;SDS011;13509;50.760;6.080;2023-05-28T04:32:21;7.63;;;3.93;;
9080;SDS011;13509;50.760;6.080;2023-05-28T04:34:50;8.40;;;4.10;;
9080;SDS011;13509;50.760;6.080;2023-05-28T04:37:19;8.17;;;4.40;;
9080;SDS011;13509;50.760;6.080;2023-05-28T04:39:48;6.90;;;3.97;;
9080;SDS011;13509;50.760;6.080;2023-05-28T04:42:17;8.97;;;4.43;;
9080;SDS011;13509;50.760;6.080;2023-05-28T04:44:46;7.43;;;4.53;;
9080;SDS011;13509;50.760;6.080;2023-05-28T04:47:14;6.93;;;4.10;;
9080;SDS011;13509;50.760;6.080;2023-05-28T04:49:42;8.00;;;4.20;;
9080;SDS011;13509;50.760;6.080;2023-05-28T04:52:12;9.10;;;4.43;;
9080;SDS011;13509;50.760;6.080;2023-05-28T04:54:40;8.47;;;4.23;;
9080;SDS011;13509;50.760;6.080;2023-05-28T04:57:09;5.77;;;3.77;;
9080;SDS011;13509;50.760;6.080;2023-05-28T04:59:37;7.73;;;4.23;;
9080;SDS011;13509;50.760;6.080;2023-05-28T05:02:05;5.60;;;3.97;;
9080;SDS011;13509;50.760;6.080;2023-05-28T05:04:35;5.23;;;3.70;;
9080;SDS011;13509;50.760;6.080;2023-05-28T05:07:03;5.70;;;3.93;;
9080;SDS011;13509;50.760;6.080;2023-05-28T05:09:33;5.37;;;3.77;;
9080;SDS011;13509;50.760;6.080;2023-05-28T05:12:01;9.17;;;4.43;;
9080;SDS011;13509;50.760;6.080;2023-05-28T05:14:29;6.50;;;3.87;;
9080;SDS011;13509;50.760;6.080;2023-05-28T05:16:57;8.93;;;4.43;;
9080;SDS011;13509;50.760;6.080;2023-05-28T05:19:26;7.17;;;4.10;;
9080;SDS011;13509;50.760;6.080;2023-05-28T05:21:54;8.27;;;4.57;;
9080;SDS011;13509;50.760;6.080;2023-05-28T05:24:23;11.97;;;4.97;;
9080;SDS011;13509;50.760;6.080;2023-05-28T05:26:52;6.53;;;4.13;;
9080;SDS011;13509;50.760;6.080;2023-05-28T05:29:20;7.50;;;3.83;;
9080;SDS011;13509;50.760;6.080;2023-05-28T05:31:49;8.47;;;4.30;;
9080;SDS011;13509;50.760;6.080;2023-05-28T05:34:17;8.13;;;4.50;;
9080;SDS011;13509;50.760;6.080;2023-05-28T05:36:46;11.17;;;4.27;;
9080;SDS011;13509;50.760;6.080;2023-05-28T05:39:14;7.93;;;4.30;;
9080;SDS011;13509;50.760;6.080;2023-05-28T05:41:43;11.63;;;5.37;;
9080;SDS011;13509;50.760;6.080;2023-05-28T05:44:18;6.97;;;4.43;;
9080;SDS011;13509;50.760;6.080;2023-05-28T05:46:46;7.37;;;4.53;;
9080;SDS011;13509;50.760;6.080;2023-05-28T05:49:14;10.43;;;4.93;;
9080;SDS011;13509;50.760;6.080;2023-05-28T05:51:43;9.30;;;4.63;;
9080;SDS011;13509;50.760;6.080;2023-05-28T05:54:11;10.47;;;5.07;;
9080;SDS011;13509;50.760;6.080;2023-05-28T05:56:39;6.97;;;4.83;;
9080;SDS011;13509;50.760;6.080;2023-05-28T05:59:07;9.77;;;4.47;;
9080;SDS011;13509;50.760;6.080;2023-05-28T06:01:37;8.30;;;4.70;;
9080;SDS011;13509;50.760;6.080;2023-05-28T06:04:06;9.67;;;5.00;;
9080;SDS011;13509;50.760;6.080;2023-05-28T06:06:34;9.17;;;5.37;;
9080;SDS011;13509;50.760;6.080;2023-05-28T06:09:03;6.10;;;4.67;;
9080;SDS011;13509;50.760;6.080;2023-05-28T06:11:31;8.57;;;5.13;;
9080;SDS011;13509;50.760;6.080;2023-05-28T06:13:59;9.43;;;5.40;;
9080;SDS011;13509;50.760;6.080;2023-05-28T06:16:28;8.73;;;5.20;;
9080;SDS011;13509;50.760;6.080;2023-05-28T06:18:58;8.65;;;5.55;;
9080;SDS011;13509;50.760;6.080;2023-05-28T06:21:26;9.85;;;5.90;;
9080;SDS011;13509;50.760;6.080;2023-05-28T06:23:54;9.07;;;5.82;;
9080;SDS011;13509;50.760;6.080;2023-05-28T06:26:23;9.75;;;5.53;;
9080;SDS011;13509;50.760;6.080;2023-05-28T06:28:51;10.27;;;5.93;;
9080;SDS011;13509;50.760;6.080;2023-05-28T06:31:19;7.80;;;5.78;;
9080;SDS011;13509;50.760;6.080;2023-05-28T06:33:49;9.25;;;5.95;;
9080;SDS011;13509;50.760;6.080;2023-05-28T06:36:18;10.02;;;5.82;;
9080;SDS011;13509;50.760;6.080;2023-05-28T06:38:47;9.43;;;6.72;;
9080;SDS011;13509;50.760;6.080;2023-05-28T06:41:16;9.13;;;6.35;;
9080;SDS011;13509;50.760;6.080;2023-05-28T06:43:44;9.85;;;5.53;;
9080;SDS011;13509;50.760;6.080;2023-05-28T06:46:13;11.63;;;6.47;;
9080;SDS011;13509;50.760;6.080;2023-05-28T06:48:42;10.10;;;6.43;;
9080;SDS011;13509;50.760;6.080;2023-05-28T06:51:10;11.73;;;6.28;;
9080;SDS011;13509;50.760;6.080;2023-05-28T06:53:39;15.77;;;6.18;;
9080;SDS011;13509;50.760;6.080;2023-05-28T06:56:08;11.27;;;6.03;;
9080;SDS011;13509;50.760;6.080;2023-05-28T06:58:36;10.43;;;6.03;;
9080;SDS011;13509;50.760;6.080;2023-05-28T07:01:04;12.20;;;7.15;;
9080;SDS011;13509;50.760;6.080;2023-05-28T07:03:32;8.77;;;6.45;;
9080;SDS011;13509;50.760;6.080;2023-05-28T07:06:01;13.55;;;6.82;;
9080;SDS011;13509;50.760;6.080;2023-05-28T07:08:30;9.07;;;5.38;;
9080;SDS011;13509;50.760;6.080;2023-05-28T07:10:59;10.40;;;6.40;;
9080;SDS011;13509;50.760;6.080;2023-05-28T07:13:28;8.73;;;5.75;;
9080;SDS011;13509;50.760;6.080;2023-05-28T07:15:56;10.90;;;5.75;;
9080;SDS011;13509;50.760;6.080;2023-05-28T07:18:24;10.32;;;6.10;;
9080;SDS011;13509;50.760;6.080;2023-05-28T07:20:53;11.98;;;6.45;;
9080;SDS011;13509;50.760;6.080;2023-05-28T07:23:21;11.52;;;6.85;;
9080;SDS011;13509;50.760;6.080;2023-05-28T07:25:49;12.18;;;7.45;;
9080;SDS011;13509;50.760;6.080;2023-05-28T07:28:19;10.75;;;6.78;;
9080;SDS011;13509;50.760;6.080;2023-05-28T07:30:48;14.98;;;7.45;;
9080;SDS011;13509;50.760;6.080;2023-05-28T07:33:16;10.23;;;6.97;;
9080;SDS011;13509;50.760;6.080;2023-05-28T07:35:44;10.43;;;6.72;;
9080;SDS011;13509;50.760;6.080;2023-05-28T07:38:12;13.82;;;6.57;;
9080;SDS011;13509;50.760;6.080;2023-05-28T07:40:41;8.43;;;5.57;;
9080;SDS011;13509;50.760;6.080;2023-05-28T07:43:10;14.00;;;6.75;;
9080;SDS011;13509;50.760;6.080;2023-05-28T07:45:39;14.20;;;6.93;;
9080;SDS011;13509;50.760;6.080;2023-05-28T07:48:07;10.70;;;6.13;;
9080;SDS011;13509;50.760;6.080;2023-05-28T07:50:36;11.00;;;6.63;;
9080;SDS011;13509;50.760;6.080;2023-05-28T07:53:04;9.88;;;6.22;;
9080;SDS011;13509;50.760;6.080;2023-05-28T07:55:33;14.02;;;6.93;;
9080;SDS011;13509;50.760;6.080;2023-05-28T07:58:01;12.20;;;6.30;;
9080;SDS011;13509;50.760;6.080;2023-05-28T08:00:29;11.57;;;5.88;;
9080;SDS011;13509;50.760;6.080;2023-05-28T08:02:59;9.45;;;5.55;;
9080;SDS011;13509;50.760;6.080;2023-05-28T08:05:27;13.32;;;5.57;;
9080;SDS011;13509;50.760;6.080;2023-05-28T08:07:55;12.07;;;5.85;;
9080;SDS011;13509;50.760;6.080;2023-05-28T08:10:24;9.93;;;5.38;;
9080;SDS011;13509;50.760;6.080;2023-05-28T08:12:52;10.40;;;5.57;;
9080;SDS011;13509;50.760;6.080;2023-05-28T08:15:20;10.57;;;5.38;;
9080;SDS011;13509;50.760;6.080;2023-05-28T08:17:49;7.72;;;4.60;;
9080;SDS011;13509;50.760;6.080;2023-05-28T08:20:18;11.68;;;5.63;;
9080;SDS011;13509;50.760;6.080;2023-05-28T08:22:48;11.48;;;6.05;;
9080;SDS011;13509;50.760;6.080;2023-05-28T08:25:17;11.45;;;5.75;;
9080;SDS011;13509;50.760;6.080;2023-05-28T08:27:45;7.07;;;4.57;;
9080;SDS011;13509;50.760;6.080;2023-05-28T08:30:13;10.13;;;5.00;;
9080;SDS011;13509;50.760;6.080;2023-05-28T08:32:42;9.57;;;4.70;;
9080;SDS011;13509;50.760;6.080;2023-05-28T08:35:10;11.15;;;5.18;;
9080;SDS011;13509;50.760;6.080;2023-05-28T08:37:40;12.27;;;4.90;;
9080;SDS011;13509;50.760;6.080;2023-05-28T08:40:09;10.70;;;4.70;;
9080;SDS011;13509;50.760;6.080;2023-05-28T08:42:37;10.38;;;5.03;;
9080;SDS011;13509;50.760;6.080;2023-05-28T08:45:06;9.93;;;4.88;;
9080;SDS011;13509;50.760;6.080;2023-05-28T08:47:34;10.68;;;4.97;;
9080;SDS011;13509;50.760;6.080;2023-05-28T08:50:05;9.55;;;4.32;;
9080;SDS011;13509;50.760;6.080;2023-05-28T08:52:34;10.57;;;5.30;;
9080;SDS011;13509;50.760;6.080;2023-05-28T08:55:04;9.95;;;4.30;;
9080;SDS011;13509;50.760;6.080;2023-05-28T08:57:32;10.45;;;4.50;;
9080;SDS011;13509;50.760;6.080;2023-05-28T09:00:01;8.07;;;4.55;;
9080;SDS011;13509;50.760;6.080;2023-05-28T09:02:34;7.93;;;4.55;;
9080;SDS011;13509;50.760;6.080;2023-05-28T09:05:02;7.55;;;4.28;;
9080;SDS011;13509;50.760;6.080;2023-05-28T09:07:31;7.65;;;4.07;;
9080;SDS011;13509;50.760;6.080;2023-05-28T09:09:59;10.05;;;4.22;;
9080;SDS011;13509;50.760;6.080;2023-05-28T09:12:29;8.20;;;3.75;;
9080;SDS011;13509;50.760;6.080;2023-05-28T09:14:57;8.40;;;4.03;;
9080;SDS011;13509;50.760;6.080;2023-05-28T09:17:32;7.43;;;3.40;;
9080;SDS011;13509;50.760;6.080;2023-05-28T09:20:03;5.90;;;3.67;;
9080;SDS011;13509;50.760;6.080;2023-05-28T09:22:37;8.10;;;4.07;;
9080;SDS011;13509;50.760;6.080;2023-05-28T09:25:06;8.68;;;3.95;;
9080;SDS011;13509;50.760;6.080;2023-05-28T09:27:36;8.18;;;4.30;;
9080;SDS011;13509;50.760;6.080;2023-05-28T09:30:04;9.77;;;3.95;;
9080;SDS011;13509;50.760;6.080;2023-05-28T09:32:34;6.97;;;3.83;;
9080;SDS011;13509;50.760;6.080;2023-05-28T09:35:04;8.60;;;3.88;;
9080;SDS011;13509;50.760;6.080;2023-05-28T09:37:32;9.25;;;3.83;;
9080;SDS011;13509;50.760;6.080;2023-05-28T09:40:02;8.45;;;4.45;;
9080;SDS011;13509;50.760;6.080;2023-05-28T09:42:31;10.27;;;4.13;;
9080;SDS011;13509;50.760;6.080;2023-05-28T09:45:02;8.68;;;3.90;;
9080;SDS011;13509;50.760;6.080;2023-05-28T09:47:30;6.18;;;3.58;;
9080;SDS011;13509;50.760;6.080;2023-05-28T09:49:58;7.95;;;4.03;;
9080;SDS011;13509;50.760;6.080;2023-05-28T09:52:27;4.88;;;3.72;;
9080;SDS011;13509;50.760;6.080;2023-05-28T09:54:56;9.75;;;3.83;;
9080;SDS011;13509;50.760;6.080;2023-05-28T09:57:26;8.77;;;4.00;;
9080;SDS011;13509;50.760;6.080;2023-05-28T09:59:54;9.65;;;4.03;;
9080;SDS011;13509;50.760;6.080;2023-05-28T10:02:27;6.60;;;3.88;;
9080;SDS011;13509;50.760;6.080;2023-05-28T10:04:56;8.67;;;3.97;;
9080;SDS011;13509;50.760;6.080;2023-05-28T10:07:27;8.45;;;4.30;;
9080;SDS011;13509;50.760;6.080;2023-05-28T10:09:57;9.50;;;4.07;;
9080;SDS011;13509;50.760;6.080;2023-05-28T10:12:27;6.97;;;4.10;;
9080;SDS011;13509;50.760;6.080;2023-05-28T10:14:56;10.27;;;4.53;;
9080;SDS011;13509;50.760;6.080;2023-05-28T10:17:27;6.43;;;4.10;;
9080;SDS011;13509;50.760;6.080;2023-05-28T10:19:55;7.32;;;4.30;;
9080;SDS011;13509;50.760;6.080;2023-05-28T10:22:24;10.40;;;4.17;;
9080;SDS011;13509;50.760;6.080;2023-05-28T10:24:53;8.90;;;4.17;;
9080;SDS011;13509;50.760;6.080;2023-05-28T10:27:22;7.60;;;4.07;;
9080;SDS011;13509;50.760;6.080;2023-05-28T10:29:57;9.40;;;4.43;;
9080;SDS011;13509;50.760;6.080;2023-05-28T10:32:26;7.67;;;4.20;;
9080;SDS011;13509;50.760;6.080;2023-05-28T10:35:00;7.87;;;3.87;;
9080;SDS011;13509;50.760;6.080;2023-05-28T10:37:29;10.77;;;4.80;;
9080;SDS011;13509;50.760;6.080;2023-05-28T10:39:57;8.07;;;4.03;;
9080;SDS011;13509;50.760;6.080;2023-05-28T10:42:27;7.40;;;4.27;;
9080;SDS011;13509;50.760;6.080;2023-05-28T10:45:05;7.77;;;4.27;;
9080;SDS011;13509;50.760;6.080;2023-05-28T10:47:35;8.77;;;4.33;;
9080;SDS011;13509;50.760;6.080;2023-05-28T10:50:10;9.20;;;4.10;;
9080;SDS011;13509;50.760;6.080;2023-05-28T10:53:02;6.53;;;3.87;;
9080;SDS011;13509;50.760;6.080;2023-05-28T10:55:38;11.80;;;5.07;;
9080;SDS011;13509;50.760;6.080;2023-05-28T10:58:18;8.83;;;4.40;;
9080;SDS011;13509;50.760;6.080;2023-05-28T11:00:49;7.20;;;3.77;;
9080;SDS011;13509;50.760;6.080;2023-05-28T11:06:04;7.57;;;4.13;;
9080;SDS011;13509;50.760;6.080;2023-05-28T11:08:36;10.40;;;4.00;;
9080;SDS011;13509;50.760;6.080;2023-05-28T11:11:05;9.93;;;4.37;;
9080;SDS011;13509;50.760;6.080;2023-05-28T11:13:33;10.07;;;4.00;;
9080;SDS011;13509;50.760;6.080;2023-05-28T11:16:05;9.15;;;4.47;;
9080;SDS011;13509;50.760;6.080;2023-05-28T11:18:34;10.20;;;4.33;;
9080;SDS011;13509;50.760;6.080;2023-05-28T11:21:04;9.53;;;4.37;;
9080;SDS011;13509;50.760;6.080;2023-05-28T11:23:34;9.07;;;4.20;;
9080;SDS011;13509;50.760;6.080;2023-05-28T11:26:03;9.37;;;4.60;;
9080;SDS011;13509;50.760;6.080;2023-05-28T11:28:47;9.53;;;3.87;;
9080;SDS011;13509;50.760;6.080;2023-05-28T11:31:15;8.47;;;3.67;;
9080;SDS011;13509;50.760;6.080;2023-05-28T11:33:43;10.37;;;4.73;;
9080;SDS011;13509;50.760;6.080;2023-05-28T11:36:14;11.40;;;4.50;;
9080;SDS011;13509;50.760;6.080;2023-05-28T11:38:42;8.70;;;4.23;;
9080;SDS011;13509;50.760;6.080;2023-05-28T11:41:10;12.37;;;4.30;;
9080;SDS011;13509;50.760;6.080;2023-05-28T11:43:39;7.37;;;3.73;;
9080;SDS011;13509;50.760;6.080;2023-05-28T11:46:07;8.93;;;3.93;;
9080;SDS011;13509;50.760;6.080;2023-05-28T11:48:36;7.90;;;3.70;;
9080;SDS011;13509;50.760;6.080;2023-05-28T11:51:04;8.47;;;4.30;;
9080;SDS011;13509;50.760;6.080;2023-05-28T11:53:42;7.27;;;4.20;;
9080;SDS011;13509;50.760;6.080;2023-05-28T11:56:11;9.50;;;4.43;;
9080;SDS011;13509;50.760;6.080;2023-05-28T11:58:43;8.00;;;3.80;;
9080;SDS011;13509;50.760;6.080;2023-05-28T12:01:15;8.97;;;4.30;;
9080;SDS011;13509;50.760;6.080;2023-05-28T12:03:43;8.13;;;4.10;;
9080;SDS011;13509;50.760;6.080;2023-05-28T12:06:12;8.03;;;4.10;;
9080;SDS011;13509;50.760;6.080;2023-05-28T12:08:52;7.50;;;4.13;;
9080;SDS011;13509;50.760;6.080;2023-05-28T12:11:24;9.93;;;3.97;;
9080;SDS011;13509;50.760;6.080;2023-05-28T12:13:53;6.70;;;3.93;;
9080;SDS011;13509;50.760;6.080;2023-05-28T12:16:22;12.13;;;4.47;;
9080;SDS011;13509;50.760;6.080;2023-05-28T12:18:51;10.87;;;3.80;;
9080;SDS011;13509;50.760;6.080;2023-05-28T12:21:20;7.45;;;4.22;;
9080;SDS011;13509;50.760;6.080;2023-05-28T12:23:48;5.90;;;3.53;;
9080;SDS011;13509;50.760;6.080;2023-05-28T12:26:17;11.47;;;3.83;;
9080;SDS011;13509;50.760;6.080;2023-05-28T12:28:46;8.20;;;4.10;;
9080;SDS011;13509;50.760;6.080;2023-05-28T12:31:14;7.93;;;3.80;;
9080;SDS011;13509;50.760;6.080;2023-05-28T12:33:42;7.07;;;4.10;;
9080;SDS011;13509;50.760;6.080;2023-05-28T12:36:11;12.10;;;4.37;;
9080;SDS011;13509;50.760;6.080;2023-05-28T12:38:39;8.80;;;3.93;;
9080;SDS011;13509;50.760;6.080;2023-05-28T12:41:07;10.47;;;3.90;;
9080;SDS011;13509;50.760;6.080;2023-05-28T12:43:37;8.67;;;3.87;;
9080;SDS011;13509;50.760;6.080;2023-05-28T12:46:05;7.67;;;3.97;;
9080;SDS011;13509;50.760;6.080;2023-05-28T12:48:33;10.00;;;4.20;;
9080;SDS011;13509;50.760;6.080;2023-05-28T12:51:02;7.97;;;4.38;;
9080;SDS011;13509;50.760;6.080;2023-05-28T12:53:30;10.98;;;4.70;;
9080;SDS011;13509;50.760;6.080;2023-05-28T12:55:58;8.47;;;4.17;;
9080;SDS011;13509;50.760;6.080;2023-05-28T12:58:27;7.07;;;3.73;;
9080;SDS011;13509;50.760;6.080;2023-05-28T13:00:57;8.10;;;3.53;;
9080;SDS011;13509;50.760;6.080;2023-05-28T13:03:26;9.03;;;4.20;;
9080;SDS011;13509;50.760;6.080;2023-05-28T13:05:54;7.87;;;3.70;;
9080;SDS011;13509;50.760;6.080;2023-05-28T13:08:22;11.07;;;3.93;;
9080;SDS011;13509;50.760;6.080;2023-05-28T13:10:51;3.90;;;3.47;;
9080;SDS011;13509;50.760;6.080;2023-05-28T13:13:19;9.63;;;3.93;;
9080;SDS011;13509;50.760;6.080;2023-05-28T13:15:47;6.67;;;3.60;;
9080;SDS011;13509;50.760;6.080;2023-05-28T13:18:17;8.67;;;4.20;;
9080;SDS011;13509;50.760;6.080;2023-05-28T13:20:45;6.27;;;3.80;;
9080;SDS011;13509;50.760;6.080;2023-05-28T13:23:14;5.93;;;3.83;;
9080;SDS011;13509;50.760;6.080;2023-05-28T13:25:42;9.77;;;3.77;;
9080;SDS011;13509;50.760;6.080;2023-05-28T13:28:11;10.13;;;3.60;;
9080;SDS011;13509;50.760;6.080;2023-05-28T13:30:39;6.37;;;3.93;;
9080;SDS011;13509;50.760;6.080;2023-05-28T13:33:07;10.13;;;3.90;;
9080;SDS011;13509;50.760;6.080;2023-05-28T13:35:37;8.57;;;4.00;;
9080;SDS011;13509;50.760;6.080;2023-05-28T13:38:05;9.40;;;4.60;;
9080;SDS011;13509;50.760;6.080;2023-05-28T13:40:33;6.50;;;3.80;;
9080;SDS011;13509;50.760;6.080;2023-05-28T13:43:02;9.57;;;3.83;;
9080;SDS011;13509;50.760;6.080;2023-05-28T13:45:31;9.80;;;4.33;;
9080;SDS011;13509;50.760;6.080;2023-05-28T13:47:59;7.47;;;3.97;;
9080;SDS011;13509;50.760;6.080;2023-05-28T13:50:28;10.80;;;4.10;;
9080;SDS011;13509;50.760;6.080;2023-05-28T13:52:58;8.67;;;4.07;;
9080;SDS011;13509;50.760;6.080;2023-05-28T13:55:26;6.70;;;4.13;;
9080;SDS011;13509;50.760;6.080;2023-05-28T13:57:54;9.23;;;4.13;;
9080;SDS011;13509;50.760;6.080;2023-05-28T14:00:23;6.00;;;4.10;;
9080;SDS011;13509;50.760;6.080;2023-05-28T14:03:04;6.93;;;4.33;;
9080;SDS011;13509;50.760;6.080;2023-05-28T14:05:33;6.47;;;4.37;;
9080;SDS011;13509;50.760;6.080;2023-05-28T14:08:03;6.33;;;4.57;;
9080;SDS011;13509;50.760;6.080;2023-05-28T14:10:31;12.47;;;5.10;;
9080;SDS011;13509;50.760;6.080;2023-05-28T14:12:59;7.67;;;4.20;;
9080;SDS011;13509;50.760;6.080;2023-05-28T14:15:28;7.37;;;4.27;;
9080;SDS011;13509;50.760;6.080;2023-05-28T14:17:56;10.30;;;4.43;;
9080;SDS011;13509;50.760;6.080;2023-05-28T14:20:24;10.20;;;4.43;;
9080;SDS011;13509;50.760;6.080;2023-05-28T14:22:53;7.47;;;4.70;;
9080;SDS011;13509;50.760;6.080;2023-05-28T14:25:23;7.73;;;4.07;;
9080;SDS011;13509;50.760;6.080;2023-05-28T14:27:51;8.27;;;4.60;;
9080;SDS011;13509;50.760;6.080;2023-05-28T14:30:36;13.03;;;4.93;;
9080;SDS011;13509;50.760;6.080;2023-05-28T14:33:04;9.47;;;4.27;;
9080;SDS011;13509;50.760;6.080;2023-05-28T14:35:32;10.03;;;4.40;;
9080;SDS011;13509;50.760;6.080;2023-05-28T14:38:01;9.53;;;4.30;;
9080;SDS011;13509;50.760;6.080;2023-05-28T14:40:30;10.37;;;4.40;;
9080;SDS011;13509;50.760;6.080;2023-05-28T14:42:58;8.20;;;4.30;;
9080;SDS011;13509;50.760;6.080;2023-05-28T14:45:27;6.40;;;4.10;;
9080;SDS011;13509;50.760;6.080;2023-05-28T14:47:55;8.17;;;4.20;;
9080;SDS011;13509;50.760;6.080;2023-05-28T14:50:23;7.10;;;4.23;;
9080;SDS011;13509;50.760;6.080;2023-05-28T14:52:52;10.17;;;4.33;;
9080;SDS011;13509;50.760;6.080;2023-05-28T14:55:20;9.37;;;4.30;;
9080;SDS011;13509;50.760;6.080;2023-05-28T14:57:50;8.10;;;4.17;;
9080;SDS011;13509;50.760;6.080;2023-05-28T15:00:18;7.90;;;4.73;;
9080;SDS011;13509;50.760;6.080;2023-05-28T15:02:46;9.27;;;4.30;;
9080;SDS011;13509;50.760;6.080;2023-05-28T15:05:15;8.23;;;4.90;;
9080;SDS011;13509;50.760;6.080;2023-05-28T15:07:43;7.33;;;4.30;;
9080;SDS011;13509;50.760;6.080;2023-05-28T15:10:11;6.83;;;3.93;;